Leadville, CO

6:13 PM MST on February 26, 2015 (GMT -0700)
Lake County | Change Station
CLOSE
Current Station
Airport
Location: Leadville,
Elevation: 9928 ft
Nearby Weather Stations

Elev 9928 ft 39.23 °N, 106.32 °W | Updated 7 minutes ago

Snow
Snow
15 °F
Feels Like 15 °F
N
0
Wind Variable Wind from North

Today
High -- | Low -- °F
--% Chance of Precip.
Yesterday
High -- | Low -- °F
Precip. -- in
6:42 AM 5:53 PM
Waxing Gibbous, 64% visible
Pressure 29.77 in
Visibility 0.8 miles
Clouds
Dew Point 12 °F
Humidity 88%
Rainfall 0.00 in
Snow Depth Not available.
UV Not available.
Pollen .60 out of 12
Air Quality Not available.
Flu Activity Not available.
SPECI KLXV 270106Z AUTO 00000KT 3/4SM -SN BR VV014 M09/M11 A2977 RMK AO2 P0001 T10941111

More Conditions Fewer Conditions

Pressure 29.77 in
Visibility 0.8 miles
Clouds
Dew Point 12 °F
Humidity 88%
Rainfall 0.00 in
Snow Depth Not available.
UV Not available.
Pollen .60 out of 12
Air Quality Not available.
Flu Activity Not available.
SPECI KLXV 270106Z AUTO 00000KT 3/4SM -SN BR VV014 M09/M11 A2977 RMK AO2 P0001 T10941111

More Conditions Fewer Conditions

10-Day Weather Forecast

Almanac

Astronomy

Feb. 26, 2015 Rise Set
Actual Time
Civil Twilight
Nautical Twilight
Astronomical Twilight
Moon
Length of Visible Light
Length of Day
Tomorrow will be .
, % of the Moon is Illuminated

Today's Extremes

State Highs State Lows

Community

WunderPhotos

Upload Photos

1,800,553 photos uploaded!

WunderBlogs® & News

Nearby

Air Quality

  Air Quality AQ Index Pollutant
Not available.

Snow Depth

Station Depth Elevation

Earthquake Activity

City Distance Mag. Time & Date
Minimum magnitude displayed is 2.5.

Coastal Water Temperatures

Place Temperature

Nearby Weather Stations